createdAt,value
2022-08-16T00:00:03.414Z,8.13
2022-08-16T00:02:31.551Z,7.93
2022-08-16T00:04:59.913Z,8.48
2022-08-16T00:07:29.303Z,7.88
2022-08-16T00:09:57.664Z,8.32
2022-08-16T00:12:26.813Z,8.15
2022-08-16T00:14:56.755Z,8.07
2022-08-16T00:17:24.348Z,7.85
2022-08-16T00:19:53.653Z,7.60
2022-08-16T00:22:24.741Z,7.97
2022-08-16T00:24:52.639Z,8.93
2022-08-16T00:27:21.471Z,8.68
2022-08-16T00:29:48.543Z,8.38
2022-08-16T00:32:35.364Z,8.95
2022-08-16T00:35:01.905Z,8.13
2022-08-16T00:37:58.602Z,8.68
2022-08-16T00:40:34.941Z,8.77
2022-08-16T00:43:12.044Z,9.15
2022-08-16T00:45:58.106Z,9.18
2022-08-16T00:48:30.598Z,9.50
2022-08-16T00:50:58.055Z,8.75
2022-08-16T00:53:26.716Z,9.02
2022-08-16T00:56:00.515Z,8.68
2022-08-16T00:58:34.977Z,9.23
2022-08-16T01:01:02.756Z,8.73
2022-08-16T01:03:31.625Z,9.60
2022-08-16T01:06:39.823Z,9.38
2022-08-16T01:08:53.850Z,8.85
2022-08-16T01:11:24.630Z,9.35
2022-08-16T01:13:57.507Z,9.65
2022-08-16T01:16:27.626Z,9.13
2022-08-16T01:19:02.668Z,9.02
2022-08-16T01:21:39.799Z,8.77
2022-08-16T01:24:44.415Z,8.90
2022-08-16T01:27:29.611Z,8.75
2022-08-16T01:32:33.554Z,8.40
2022-08-16T01:35:22.990Z,9.35
2022-08-16T01:37:54.626Z,8.98
2022-08-16T01:40:27.809Z,8.73
2022-08-16T01:42:55.568Z,8.27
2022-08-16T01:45:23.180Z,9.80
2022-08-16T01:47:52.194Z,9.57
2022-08-16T01:50:42.342Z,8.88
2022-08-16T01:53:09.910Z,9.57
2022-08-16T01:55:36.673Z,9.27
2022-08-16T01:58:07.343Z,8.90
2022-08-16T02:00:37.383Z,9.23
2022-08-16T02:03:04.483Z,8.93
2022-08-16T02:05:31.114Z,9.55
2022-08-16T02:07:58.436Z,9.63
2022-08-16T02:10:25.985Z,9.55
2022-08-16T02:12:55.914Z,9.48
2022-08-16T02:15:29.141Z,9.27
2022-08-16T02:17:58.094Z,9.00
2022-08-16T02:20:28.004Z,9.73
2022-08-16T02:22:56.337Z,9.27
2022-08-16T02:25:23.008Z,9.07
2022-08-16T02:27:50.883Z,9.23
2022-08-16T02:30:36.940Z,9.48
2022-08-16T02:33:08.695Z,9.30
2022-08-16T02:35:54.470Z,9.93
2022-08-16T02:38:22.885Z,9.15
2022-08-16T02:40:51.055Z,9.15
2022-08-16T02:43:17.601Z,9.35
2022-08-16T02:45:44.129Z,8.52
2022-08-16T02:48:28.444Z,9.85
2022-08-16T02:51:06.291Z,8.98
2022-08-16T02:53:44.716Z,9.40
2022-08-16T02:56:15.273Z,9.35
2022-08-16T02:58:44.186Z,10.10
2022-08-16T03:01:16.729Z,9.93
2022-08-16T03:04:39.547Z,10.60
2022-08-16T03:06:42.692Z,10.45
2022-08-16T03:09:13.754Z,10.35
2022-08-16T03:11:42.380Z,10.70
2022-08-16T03:14:09.150Z,10.38
2022-08-16T03:16:58.686Z,10.60
2022-08-16T03:19:26.911Z,9.77
2022-08-16T03:22:13.374Z,10.70
2022-08-16T03:24:46.518Z,10.95
2022-08-16T03:27:13.319Z,10.77
2022-08-16T03:29:40.500Z,10.77
2022-08-16T03:32:20.905Z,10.63
2022-08-16T03:34:50.007Z,10.80
2022-08-16T03:37:17.042Z,10.43
2022-08-16T03:39:43.621Z,10.05
2022-08-16T03:42:10.532Z,11.05
2022-08-16T03:44:44.571Z,10.90
2022-08-16T03:47:18.916Z,11.18
2022-08-16T03:49:51.395Z,10.98
2022-08-16T03:52:20.043Z,10.38
2022-08-16T03:54:53.468Z,10.55
2022-08-16T03:57:24.894Z,10.52
2022-08-16T03:59:59.464Z,10.75
2022-08-16T04:02:31.758Z,10.52
2022-08-16T04:04:58.595Z,10.02
2022-08-16T04:07:25.687Z,9.63
2022-08-16T04:09:52.453Z,10.82
2022-08-16T04:12:53.171Z,10.57
2022-08-16T04:15:08.858Z,9.90
2022-08-16T04:17:36.847Z,9.98
2022-08-16T04:20:23.816Z,9.98
2022-08-16T04:22:55.815Z,9.23
2022-08-16T04:25:22.720Z,9.65
2022-08-16T04:27:56.106Z,8.77
2022-08-16T04:30:32.425Z,9.10
2022-08-16T04:33:02.084Z,8.57
2022-08-16T04:35:34.338Z,8.32
2022-08-16T04:38:10.639Z,8.88
2022-08-16T04:40:47.899Z,8.88
2022-08-16T04:43:17.408Z,8.25
2022-08-16T04:45:45.628Z,8.10
2022-08-16T04:48:12.222Z,8.52
2022-08-16T04:50:49.247Z,8.45
2022-08-16T04:53:16.947Z,8.30
2022-08-16T04:55:45.817Z,7.43
2022-08-16T04:58:38.407Z,8.32
2022-08-16T05:00:59.290Z,8.63
2022-08-16T05:03:26.831Z,7.90
2022-08-16T05:05:55.560Z,8.10
2022-08-16T05:08:30.482Z,8.38
2022-08-16T05:11:01.431Z,7.50
2022-08-16T05:13:40.937Z,8.43
2022-08-16T05:16:11.863Z,8.10
2022-08-16T05:18:43.340Z,7.63
2022-08-16T05:21:11.310Z,7.70
2022-08-16T05:23:39.607Z,7.20
2022-08-16T05:26:06.236Z,6.88
2022-08-16T05:28:55.253Z,7.50
2022-08-16T05:31:23.004Z,7.95
2022-08-16T05:33:53.598Z,7.30
2022-08-16T05:36:21.496Z,7.38
2022-08-16T05:38:48.935Z,6.90
2022-08-16T05:41:16.865Z,6.50
2022-08-16T05:43:46.497Z,7.00
2022-08-16T05:46:29.668Z,6.22
2022-08-16T05:49:03.629Z,6.15
2022-08-16T05:51:38.372Z,7.07
2022-08-16T05:54:11.627Z,6.63
2022-08-16T05:56:43.094Z,6.82
2022-08-16T05:59:10.123Z,6.15
2022-08-16T06:01:38.955Z,5.50
2022-08-16T06:04:13.749Z,7.18
2022-08-16T06:06:57.530Z,6.43
2022-08-16T06:09:42.885Z,6.18
2022-08-16T06:12:12.483Z,5.95
2022-08-16T06:14:39.949Z,5.55
2022-08-16T06:17:07.092Z,5.43
2022-08-16T06:19:33.970Z,6.00
2022-08-16T06:22:02.908Z,5.70
2022-08-16T06:24:54.777Z,4.68
2022-08-16T06:27:15.750Z,5.88
2022-08-16T06:29:44.693Z,6.25
2022-08-16T06:32:27.293Z,5.22
2022-08-16T06:34:57.312Z,5.65
2022-08-16T06:37:36.859Z,5.93
2022-08-16T06:40:05.092Z,4.90
2022-08-16T06:42:47.529Z,4.87
2022-08-16T06:45:15.150Z,4.53
2022-08-16T06:47:53.369Z,4.70
2022-08-16T06:50:31.532Z,5.97
2022-08-16T06:53:01.088Z,5.85
2022-08-16T06:55:38.307Z,5.50
2022-08-16T06:58:08.629Z,5.55
2022-08-16T07:00:49.510Z,5.63
2022-08-16T07:03:27.619Z,6.13
2022-08-16T07:05:56.964Z,5.28
2022-08-16T07:08:24.868Z,5.40
2022-08-16T07:10:54.083Z,5.57
2022-08-16T07:13:53.181Z,4.28
2022-08-16T07:16:15.374Z,5.43
2022-08-16T07:19:01.542Z,5.30
2022-08-16T07:21:42.228Z,5.15
2022-08-16T07:24:13.191Z,5.03
2022-08-16T07:26:57.473Z,5.07
2022-08-16T07:29:24.815Z,4.97
2022-08-16T07:31:51.552Z,5.38
2022-08-16T07:34:20.935Z,5.38
2022-08-16T07:37:07.575Z,5.25
2022-08-16T07:39:34.587Z,5.13
2022-08-16T07:42:10.845Z,5.28
2022-08-16T07:44:52.539Z,4.70
2022-08-16T07:47:20.212Z,4.80
2022-08-16T07:49:58.021Z,5.32
2022-08-16T07:52:29.970Z,5.13
2022-08-16T07:54:58.242Z,6.68
2022-08-16T07:57:25.376Z,4.60
2022-08-16T07:59:52.979Z,4.60
2022-08-16T08:02:21.013Z,5.55
2022-08-16T08:04:48.489Z,5.18
2022-08-16T08:07:16.189Z,5.25
2022-08-16T08:09:43.950Z,5.75
2022-08-16T08:12:32.649Z,5.25
2022-08-16T08:14:57.692Z,4.70
2022-08-16T08:17:24.318Z,5.30
2022-08-16T08:19:53.156Z,4.93
2022-08-16T08:22:22.084Z,4.40
2022-08-16T08:24:48.985Z,4.30
2022-08-16T08:27:22.890Z,4.72
2022-08-16T08:30:49.558Z,4.05
2022-08-16T08:32:57.789Z,4.15
2022-08-16T08:35:27.119Z,4.30
2022-08-16T08:37:56.507Z,3.53
2022-08-16T08:40:26.575Z,4.15
2022-08-16T08:43:00.436Z,3.75
2022-08-16T08:45:46.794Z,3.85
2022-08-16T08:48:33.431Z,3.83
2022-08-16T08:51:08.964Z,4.22
2022-08-16T08:53:36.168Z,3.53
2022-08-16T08:56:23.306Z,3.90
2022-08-16T08:58:54.034Z,3.35
2022-08-16T09:01:31.607Z,3.70
2022-08-16T09:04:05.780Z,3.38
2022-08-16T09:06:32.939Z,3.78
2022-08-16T09:09:00.014Z,3.50
2022-08-16T09:11:40.521Z,3.78
2022-08-16T09:14:08.899Z,3.65
2022-08-16T09:17:03.073Z,3.40
2022-08-16T09:19:37.305Z,3.30
2022-08-16T09:22:19.945Z,3.65
2022-08-16T09:24:52.398Z,3.33
2022-08-16T09:27:23.441Z,3.45
2022-08-16T09:29:59.924Z,3.72
2022-08-16T09:32:31.305Z,3.40
2022-08-16T09:35:01.401Z,3.65
2022-08-16T09:37:30.505Z,3.65
2022-08-16T09:40:32.894Z,3.13
2022-08-16T09:42:58.695Z,3.28
2022-08-16T09:45:28.888Z,3.75
2022-08-16T09:47:55.788Z,3.30
2022-08-16T09:50:37.124Z,3.40
2022-08-16T09:53:16.774Z,2.88
2022-08-16T09:55:49.030Z,3.20
2022-08-16T09:58:37.832Z,3.30
2022-08-16T10:01:03.224Z,2.97
2022-08-16T10:03:30.599Z,3.22
2022-08-16T10:05:58.034Z,3.53
2022-08-16T10:08:26.381Z,3.10
2022-08-16T10:11:12.106Z,3.30
2022-08-16T10:13:39.570Z,3.67
2022-08-16T10:18:56.505Z,3.38
2022-08-16T10:21:23.738Z,3.13
2022-08-16T10:23:53.453Z,2.95
2022-08-16T10:27:00.727Z,2.70
2022-08-16T10:29:07.880Z,3.20
2022-08-16T10:31:44.653Z,3.10
2022-08-16T10:34:31.241Z,3.05
2022-08-16T10:36:59.955Z,3.03
2022-08-16T10:39:26.471Z,2.90
2022-08-16T10:42:07.831Z,3.30
2022-08-16T10:44:34.978Z,2.95
2022-08-16T10:47:02.280Z,2.70
2022-08-16T10:49:29.221Z,2.60
2022-08-16T10:52:02.555Z,2.35
2022-08-16T10:54:30.980Z,2.90
2022-08-16T10:57:00.084Z,3.30
2022-08-16T10:59:38.494Z,2.53
2022-08-16T11:02:58.303Z,2.40
2022-08-16T11:05:08.264Z,2.58
2022-08-16T11:07:51.717Z,2.90
2022-08-16T11:16:26.652Z,3.00
2022-08-16T11:19:05.852Z,2.97
2022-08-16T11:22:23.002Z,3.00
2022-08-16T11:24:42.438Z,2.63
2022-08-16T11:27:23.937Z,2.80
2022-08-16T11:29:55.836Z,2.65
2022-08-16T11:32:31.818Z,3.00
2022-08-16T11:35:10.392Z,2.45
2022-08-16T11:40:32.505Z,2.72
2022-08-16T11:43:00.371Z,2.72
2022-08-16T11:45:26.963Z,2.67
2022-08-16T11:47:56.834Z,2.67
2022-08-16T11:50:24.300Z,2.63
2022-08-16T11:52:50.980Z,2.90
2022-08-16T11:55:17.487Z,2.70
2022-08-16T11:57:44.028Z,2.60
2022-08-16T12:00:49.658Z,2.90
2022-08-16T12:03:00.867Z,2.88
2022-08-16T12:05:27.620Z,7.22
2022-08-16T12:07:55.880Z,8.90
2022-08-16T12:10:24.812Z,7.82
2022-08-16T12:12:55.260Z,5.30
2022-08-16T12:15:26.543Z,3.35
2022-08-16T12:17:55.685Z,2.47
2022-08-16T12:20:26.056Z,2.55
2022-08-16T12:22:56.219Z,3.05
2022-08-16T12:25:27.358Z,2.63
2022-08-16T12:27:55.560Z,2.53
2022-08-16T12:30:31.180Z,2.47
2022-08-16T12:33:03.126Z,2.78
2022-08-16T12:35:32.530Z,2.72
2022-08-16T12:38:00.991Z,2.33
2022-08-16T12:40:39.214Z,2.10
2022-08-16T12:43:12.488Z,2.15
2022-08-16T12:45:47.206Z,2.90
2022-08-16T12:48:35.408Z,2.45
2022-08-16T12:51:13.543Z,2.38
2022-08-16T12:53:45.973Z,2.42
2022-08-16T12:56:13.703Z,2.50
2022-08-16T12:58:49.080Z,2.83
2022-08-16T13:01:22.773Z,2.25
2022-08-16T13:03:59.230Z,2.28
2022-08-16T13:06:37.226Z,2.50
2022-08-16T13:09:20.018Z,2.47
2022-08-16T13:12:18.790Z,2.20
2022-08-16T13:14:47.093Z,2.03
2022-08-16T13:17:21.285Z,2.25
2022-08-16T13:22:45.655Z,2.25
2022-08-16T13:25:20.680Z,2.40
2022-08-16T13:28:03.126Z,2.72
2022-08-16T13:30:46.268Z,2.50
2022-08-16T13:33:29.781Z,2.25
2022-08-16T13:35:59.211Z,2.25
2022-08-16T13:38:30.199Z,2.55
2022-08-16T13:41:00.049Z,2.38
2022-08-16T13:43:27.851Z,2.40
2022-08-16T13:45:57.150Z,2.40
2022-08-16T13:48:26.218Z,2.80
2022-08-16T13:50:55.240Z,2.33
2022-08-16T13:53:24.856Z,2.55
2022-08-16T13:55:58.003Z,2.58
2022-08-16T13:58:36.596Z,2.65
2022-08-16T14:01:14.496Z,2.40
2022-08-16T14:03:44.603Z,2.80
2022-08-16T14:06:12.401Z,2.60
2022-08-16T14:08:42.602Z,2.50
2022-08-16T14:11:12.475Z,2.38
2022-08-16T14:13:40.590Z,2.30
2022-08-16T14:16:12.721Z,2.70
2022-08-16T14:18:52.660Z,2.22
2022-08-16T14:21:22.035Z,2.42
2022-08-16T14:23:52.100Z,2.90
2022-08-16T14:26:21.104Z,2.63
2022-08-16T14:28:50.300Z,2.13
2022-08-16T14:31:18.198Z,2.17
2022-08-16T14:33:45.176Z,2.40
2022-08-16T14:36:12.022Z,2.53
2022-08-16T14:38:45.526Z,2.08
2022-08-16T14:41:13.393Z,2.83
2022-08-16T14:43:40.230Z,2.40
2022-08-16T14:46:07.528Z,2.33
2022-08-16T14:48:34.613Z,2.30
2022-08-16T14:51:01.571Z,2.58
2022-08-16T14:53:28.619Z,2.38
2022-08-16T14:55:59.239Z,2.55
2022-08-16T14:58:35.115Z,2.33
2022-08-16T15:01:04.121Z,2.28
2022-08-16T15:03:32.937Z,2.20
2022-08-16T15:06:00.464Z,2.38
2022-08-16T15:08:36.275Z,2.40
2022-08-16T15:11:05.452Z,2.60
2022-08-16T15:13:32.312Z,2.10
2022-08-16T15:16:02.596Z,2.38
2022-08-16T15:18:31.838Z,2.40
2022-08-16T15:21:03.981Z,2.13
2022-08-16T15:23:33.716Z,2.00
2022-08-16T15:26:02.998Z,2.30
2022-08-16T15:28:32.247Z,2.55
2022-08-16T15:31:03.283Z,2.30
2022-08-16T15:33:32.866Z,2.15
2022-08-16T15:36:00.444Z,2.08
2022-08-16T15:38:55.323Z,1.92
2022-08-16T15:41:31.477Z,2.63
2022-08-16T15:44:05.567Z,2.20
2022-08-16T15:46:56.744Z,2.00
2022-08-16T15:49:36.915Z,2.30
2022-08-16T15:52:15.665Z,2.38
2022-08-16T15:54:53.526Z,1.92
2022-08-16T15:57:24.124Z,1.90
2022-08-16T15:59:52.726Z,2.20
2022-08-16T16:02:29.448Z,2.20
2022-08-16T16:05:01.896Z,1.85
2022-08-16T16:07:29.945Z,2.00
2022-08-16T16:09:58.315Z,2.20
2022-08-16T16:15:17.669Z,2.13
2022-08-16T16:17:44.229Z,2.00
2022-08-16T16:20:18.199Z,2.10
2022-08-16T16:22:46.583Z,2.40
2022-08-16T16:25:15.939Z,2.10
2022-08-16T16:27:43.991Z,2.20
2022-08-16T16:30:33.060Z,2.30
2022-08-16T16:33:01.135Z,2.05
2022-08-16T16:35:32.732Z,2.40
2022-08-16T16:38:00.142Z,2.05
2022-08-16T16:40:28.908Z,1.80
2022-08-16T16:43:00.354Z,1.90
2022-08-16T16:45:34.676Z,1.90
2022-08-16T16:48:12.465Z,2.13
2022-08-16T16:50:45.440Z,1.90
2022-08-16T16:53:16.902Z,1.90
2022-08-16T16:55:47.749Z,1.90
2022-08-16T16:58:43.164Z,2.17
2022-08-16T17:01:10.753Z,2.17
2022-08-16T17:03:38.619Z,2.15
2022-08-16T17:06:10.266Z,1.90
2022-08-16T17:08:41.429Z,2.08
2022-08-16T17:11:09.834Z,1.92
2022-08-16T17:13:38.659Z,2.00
2022-08-16T17:16:05.642Z,2.00
2022-08-16T17:21:24.141Z,2.30
2022-08-16T17:23:58.225Z,2.10
2022-08-16T17:26:29.644Z,2.15
2022-08-16T17:29:02.594Z,2.20
2022-08-16T17:31:40.806Z,2.10
2022-08-16T17:34:28.995Z,2.08
2022-08-16T17:36:58.734Z,2.20
2022-08-16T17:39:26.514Z,2.10
2022-08-16T17:39:29.268Z,2.00
2022-08-16T17:42:00.876Z,2.03
2022-08-16T17:44:27.719Z,2.20
2022-08-16T17:46:54.508Z,2.30
2022-08-16T17:49:21.603Z,2.35
2022-08-16T17:51:48.169Z,2.35
2022-08-16T17:54:22.169Z,2.17
2022-08-16T17:57:00.791Z,2.00
2022-08-16T17:59:29.020Z,2.30
2022-08-16T18:01:56.145Z,2.50
2022-08-16T18:04:49.475Z,2.90
2022-08-16T18:07:10.250Z,3.00
2022-08-16T18:09:37.061Z,2.72
2022-08-16T18:12:44.961Z,2.65
2022-08-16T18:15:08.404Z,2.65
2022-08-16T18:17:35.109Z,2.70
2022-08-16T18:20:02.056Z,2.47
2022-08-16T18:22:32.290Z,2.70
2022-08-16T18:24:58.878Z,2.58
2022-08-16T18:27:27.428Z,2.33
2022-08-16T18:29:54.565Z,2.63
2022-08-16T18:32:24.308Z,2.40
2022-08-16T18:34:52.510Z,2.60
2022-08-16T18:37:20.649Z,2.58
2022-08-16T18:39:47.139Z,2.70
2022-08-16T18:42:15.166Z,2.50
2022-08-16T18:44:43.656Z,2.50
2022-08-16T18:47:10.534Z,2.58
2022-08-16T18:49:36.999Z,2.95
2022-08-16T18:52:04.203Z,2.92
2022-08-16T18:54:32.934Z,2.63
2022-08-16T18:57:00.782Z,3.10
2022-08-16T18:59:30.958Z,3.00
2022-08-16T19:02:00.130Z,2.72
2022-08-16T19:04:55.562Z,3.00
2022-08-16T19:07:18.949Z,2.80
2022-08-16T19:09:45.701Z,2.67
2022-08-16T19:12:12.349Z,2.88
2022-08-16T19:14:42.711Z,2.78
2022-08-16T19:17:11.235Z,3.13
2022-08-16T19:19:37.784Z,2.85
2022-08-16T19:22:05.926Z,2.60
2022-08-16T19:24:32.518Z,3.10
2022-08-16T19:26:59.049Z,2.75
2022-08-16T19:29:28.613Z,3.40
2022-08-16T19:31:55.125Z,6.10
2022-08-16T19:34:21.580Z,4.50
2022-08-16T19:36:48.134Z,4.55
2022-08-16T19:39:16.074Z,4.15
2022-08-16T19:41:45.808Z,4.13
2022-08-16T19:44:13.074Z,3.58
2022-08-16T19:46:43.493Z,3.05
2022-08-16T19:49:10.198Z,3.05
2022-08-16T19:51:42.599Z,3.38
2022-08-16T19:54:09.033Z,3.50
2022-08-16T19:56:35.480Z,3.10
2022-08-16T19:59:18.752Z,3.33
2022-08-16T20:01:46.342Z,2.88
2022-08-16T20:04:13.630Z,3.45
2022-08-16T20:06:41.107Z,3.00
2022-08-16T20:09:08.361Z,3.20
2022-08-16T20:11:37.180Z,3.85
2022-08-16T20:14:04.491Z,3.30
2022-08-16T20:16:31.053Z,3.20
2022-08-16T20:18:57.871Z,3.65
2022-08-16T20:21:24.396Z,3.28
2022-08-16T20:23:51.220Z,3.95
2022-08-16T20:26:18.889Z,3.75
2022-08-16T20:28:53.379Z,3.53
2022-08-16T20:33:48.358Z,3.50
2022-08-16T20:36:16.048Z,3.70
2022-08-16T20:38:45.959Z,3.95
2022-08-16T20:41:12.951Z,4.07
2022-08-16T20:43:39.439Z,4.20
2022-08-16T20:46:06.115Z,4.18
2022-08-16T20:48:32.568Z,4.80
2022-08-16T20:50:59.151Z,4.15
2022-08-16T20:53:25.560Z,4.68
2022-08-16T20:55:52.106Z,4.82
2022-08-16T20:58:18.635Z,5.25
2022-08-16T21:00:45.528Z,5.57
2022-08-16T21:03:13.294Z,4.65
2022-08-16T21:05:40.201Z,4.88
2022-08-16T21:08:51.496Z,4.93
2022-08-16T21:10:53.703Z,5.25
2022-08-16T21:13:20.996Z,5.03
2022-08-16T21:15:47.519Z,5.20
2022-08-16T21:18:14.004Z,5.10
2022-08-16T21:20:40.895Z,5.15
2022-08-16T21:23:10.006Z,4.75
2022-08-16T21:25:42.127Z,4.82
2022-08-16T21:28:40.758Z,4.90
2022-08-16T21:31:07.762Z,4.97
2022-08-16T21:33:35.900Z,5.13
2022-08-16T21:36:02.423Z,5.32
2022-08-16T21:38:30.889Z,5.63
2022-08-16T21:40:59.401Z,5.70
2022-08-16T21:43:28.683Z,5.70
2022-08-16T21:45:55.971Z,6.18
2022-08-16T21:48:35.016Z,5.70
2022-08-16T21:51:08.576Z,6.40
2022-08-16T21:53:36.091Z,6.25
2022-08-16T21:56:05.772Z,6.13
2022-08-16T21:58:33.931Z,6.40
2022-08-16T22:01:01.790Z,7.45
2022-08-16T22:03:31.930Z,7.75
2022-08-16T22:06:11.916Z,7.32
2022-08-16T22:08:48.691Z,7.03
2022-08-16T22:11:19.107Z,6.70
2022-08-16T22:13:57.393Z,7.65
2022-08-16T22:16:31.360Z,6.95
2022-08-16T22:18:58.662Z,7.05
2022-08-16T22:21:25.478Z,7.53
2022-08-16T22:23:57.025Z,7.05
2022-08-16T22:26:31.878Z,7.15
2022-08-16T22:29:05.300Z,6.80
2022-08-16T22:31:32.575Z,7.43
2022-08-16T22:34:01.611Z,7.70
2022-08-16T22:36:29.288Z,7.78
2022-08-16T22:39:00.942Z,8.48
2022-08-16T22:41:29.088Z,8.18
2022-08-16T22:43:56.038Z,8.43
2022-08-16T22:46:22.710Z,7.68
2022-08-16T22:48:50.481Z,8.20
2022-08-16T22:51:20.407Z,8.18
2022-08-16T22:53:46.997Z,8.45
2022-08-16T22:56:15.490Z,8.48
2022-08-16T22:58:42.126Z,7.88
2022-08-16T23:01:10.021Z,8.55
2022-08-16T23:03:37.397Z,8.82
2022-08-16T23:06:04.997Z,8.68
2022-08-16T23:08:38.295Z,8.77
2022-08-16T23:11:17.986Z,8.75
2022-08-16T23:13:50.128Z,9.27
2022-08-16T23:18:49.510Z,9.00
2022-08-16T23:21:17.536Z,8.77
2022-08-16T23:23:46.226Z,8.80
2022-08-16T23:26:46.030Z,9.05
2022-08-16T23:29:04.373Z,9.68
2022-08-16T23:31:32.510Z,8.77
2022-08-16T23:33:59.315Z,9.38
2022-08-16T23:36:25.927Z,9.60
2022-08-16T23:38:52.452Z,9.02
2022-08-16T23:41:18.953Z,9.90
2022-08-16T23:43:45.390Z,10.65
2022-08-16T23:46:16.834Z,10.00
2022-08-16T23:49:59.914Z,10.70
2022-08-16T23:51:31.670Z,10.82
2022-08-16T23:53:58.368Z,11.20
2022-08-16T23:56:25.787Z,11.10
2022-08-16T23:58:54.600Z,10.23
